sensor_id;sensor_type;location;lat;lon;timestamp;temperature;humidity
44565;DHT22;30275;51.822;-0.326;2023-01-29T00:01:07;5.20;99.90
44565;DHT22;30275;51.822;-0.326;2023-01-29T00:03:34;5.20;99.90
44565;DHT22;30275;51.822;-0.326;2023-01-29T00:06:03;5.20;99.90
44565;DHT22;30275;51.822;-0.326;2023-01-29T00:08:35;5.30;99.90
44565;DHT22;30275;51.822;-0.326;2023-01-29T00:11:05;5.30;99.90
44565;DHT22;30275;51.822;-0.326;2023-01-29T00:13:31;5.20;99.90
44565;DHT22;30275;51.822;-0.326;2023-01-29T00:15:58;5.20;99.90
44565;DHT22;30275;51.822;-0.326;2023-01-29T00:18:24;5.30;99.90
44565;DHT22;30275;51.822;-0.326;2023-01-29T00:20:51;5.20;99.90
44565;DHT22;30275;51.822;-0.326;2023-01-29T00:23:17;5.20;99.90
44565;DHT22;30275;51.822;-0.326;2023-01-29T00:25:44;5.30;99.90
44565;DHT22;30275;51.822;-0.326;2023-01-29T00:28:10;5.30;99.90
44565;DHT22;30275;51.822;-0.326;2023-01-29T00:30:36;5.30;99.90
44565;DHT22;30275;51.822;-0.326;2023-01-29T00:33:03;5.30;99.90
44565;DHT22;30275;51.822;-0.326;2023-01-29T00:35:29;5.30;99.90
44565;DHT22;30275;51.822;-0.326;2023-01-29T00:37:55;5.30;99.90
44565;DHT22;30275;51.822;-0.326;2023-01-29T00:40:21;5.30;99.90
44565;DHT22;30275;51.822;-0.326;2023-01-29T00:42:47;5.30;99.90
44565;DHT22;30275;51.822;-0.326;2023-01-29T00:45:31;5.30;99.90
44565;DHT22;30275;51.822;-0.326;2023-01-29T00:47:57;5.30;99.90
44565;DHT22;30275;51.822;-0.326;2023-01-29T00:50:23;5.30;99.90
44565;DHT22;30275;51.822;-0.326;2023-01-29T00:52:48;5.30;99.90
44565;DHT22;30275;51.822;-0.326;2023-01-29T00:55:16;5.30;99.90
44565;DHT22;30275;51.822;-0.326;2023-01-29T00:57:42;5.30;99.90
44565;DHT22;30275;51.822;-0.326;2023-01-29T01:00:11;5.30;99.90
44565;DHT22;30275;51.822;-0.326;2023-01-29T01:02:37;5.30;99.90
44565;DHT22;30275;51.822;-0.326;2023-01-29T01:05:21;5.40;99.90
44565;DHT22;30275;51.822;-0.326;2023-01-29T01:07:49;5.40;99.90
44565;DHT22;30275;51.822;-0.326;2023-01-29T01:10:21;5.30;99.90
44565;DHT22;30275;51.822;-0.326;2023-01-29T01:12:49;5.30;99.90
44565;DHT22;30275;51.822;-0.326;2023-01-29T01:15:15;5.30;99.90
44565;DHT22;30275;51.822;-0.326;2023-01-29T01:17:41;5.40;99.90
44565;DHT22;30275;51.822;-0.326;2023-01-29T01:20:07;5.50;99.90
44565;DHT22;30275;51.822;-0.326;2023-01-29T01:22:33;5.50;99.90
44565;DHT22;30275;51.822;-0.326;2023-01-29T01:25:00;5.50;99.90
44565;DHT22;30275;51.822;-0.326;2023-01-29T01:27:25;5.60;99.90
44565;DHT22;30275;51.822;-0.326;2023-01-29T01:29:51;5.60;99.90
44565;DHT22;30275;51.822;-0.326;2023-01-29T01:32:17;5.60;99.90
44565;DHT22;30275;51.822;-0.326;2023-01-29T01:34:42;5.70;99.90
44565;DHT22;30275;51.822;-0.326;2023-01-29T01:37:10;5.70;99.90
44565;DHT22;30275;51.822;-0.326;2023-01-29T01:39:35;5.80;99.90
44565;DHT22;30275;51.822;-0.326;2023-01-29T01:42:01;5.80;99.90
44565;DHT22;30275;51.822;-0.326;2023-01-29T01:47:15;5.80;99.90
44565;DHT22;30275;51.822;-0.326;2023-01-29T01:49:42;5.80;99.90
44565;DHT22;30275;51.822;-0.326;2023-01-29T01:52:09;5.80;99.90
44565;DHT22;30275;51.822;-0.326;2023-01-29T01:54:35;5.80;99.90
44565;DHT22;30275;51.822;-0.326;2023-01-29T01:57:07;5.90;99.90
44565;DHT22;30275;51.822;-0.326;2023-01-29T01:59:37;5.90;99.90
44565;DHT22;30275;51.822;-0.326;2023-01-29T02:02:05;5.90;99.90
44565;DHT22;30275;51.822;-0.326;2023-01-29T02:04:50;5.90;99.90
44565;DHT22;30275;51.822;-0.326;2023-01-29T02:07:42;5.90;99.90
44565;DHT22;30275;51.822;-0.326;2023-01-29T02:10:44;5.90;99.90
44565;DHT22;30275;51.822;-0.326;2023-01-29T02:13:11;6.00;99.90
44565;DHT22;30275;51.822;-0.326;2023-01-29T02:15:37;6.00;99.90
44565;DHT22;30275;51.822;-0.326;2023-01-29T02:18:07;5.90;99.90
44565;DHT22;30275;51.822;-0.326;2023-01-29T02:20:33;5.80;99.90
44565;DHT22;30275;51.822;-0.326;2023-01-29T02:23:04;5.80;99.90
44565;DHT22;30275;51.822;-0.326;2023-01-29T02:28:45;5.90;99.90
44565;DHT22;30275;51.822;-0.326;2023-01-29T02:31:34;5.80;99.90
44565;DHT22;30275;51.822;-0.326;2023-01-29T02:34:26;5.70;99.90
44565;DHT22;30275;51.822;-0.326;2023-01-29T02:37:08;5.60;99.90
44565;DHT22;30275;51.822;-0.326;2023-01-29T02:39:47;5.50;99.90
44565;DHT22;30275;51.822;-0.326;2023-01-29T02:42:26;5.50;99.90
44565;DHT22;30275;51.822;-0.326;2023-01-29T02:45:03;5.40;99.90
44565;DHT22;30275;51.822;-0.326;2023-01-29T02:47:47;5.40;99.90
44565;DHT22;30275;51.822;-0.326;2023-01-29T03:00:43;5.30;99.90
44565;DHT22;30275;51.822;-0.326;2023-01-29T03:03:19;5.30;99.90
44565;DHT22;30275;51.822;-0.326;2023-01-29T03:08:37;5.30;99.90
44565;DHT22;30275;51.822;-0.326;2023-01-29T03:11:09;5.30;99.90
44565;DHT22;30275;51.822;-0.326;2023-01-29T03:13:46;5.30;99.90
44565;DHT22;30275;51.822;-0.326;2023-01-29T03:21:40;5.20;99.90
44565;DHT22;30275;51.822;-0.326;2023-01-29T03:24:57;5.30;99.90
44565;DHT22;30275;51.822;-0.326;2023-01-29T03:27:49;5.30;99.90
44565;DHT22;30275;51.822;-0.326;2023-01-29T03:30:56;5.40;99.90
44565;DHT22;30275;51.822;-0.326;2023-01-29T03:36:33;5.30;99.90
44565;DHT22;30275;51.822;-0.326;2023-01-29T03:39:06;5.40;99.90
44565;DHT22;30275;51.822;-0.326;2023-01-29T03:41:36;5.30;99.90
44565;DHT22;30275;51.822;-0.326;2023-01-29T03:46:29;5.30;99.90
44565;DHT22;30275;51.822;-0.326;2023-01-29T03:49:29;5.20;99.90
44565;DHT22;30275;51.822;-0.326;2023-01-29T03:52:18;5.30;99.90
44565;DHT22;30275;51.822;-0.326;2023-01-29T03:57:44;5.20;99.90
44565;DHT22;30275;51.822;-0.326;2023-01-29T04:00:18;5.20;99.90
44565;DHT22;30275;51.822;-0.326;2023-01-29T04:05:29;5.20;99.90
44565;DHT22;30275;51.822;-0.326;2023-01-29T04:08:02;5.20;99.90
44565;DHT22;30275;51.822;-0.326;2023-01-29T04:10:30;5.20;99.90
44565;DHT22;30275;51.822;-0.326;2023-01-29T04:13:04;5.30;99.90
44565;DHT22;30275;51.822;-0.326;2023-01-29T04:15:34;5.30;99.90
44565;DHT22;30275;51.822;-0.326;2023-01-29T04:18:01;5.30;99.90
44565;DHT22;30275;51.822;-0.326;2023-01-29T04:20:27;5.30;99.90
44565;DHT22;30275;51.822;-0.326;2023-01-29T04:22:53;5.20;99.90
44565;DHT22;30275;51.822;-0.326;2023-01-29T04:25:22;5.20;99.90
44565;DHT22;30275;51.822;-0.326;2023-01-29T04:30:55;5.10;99.90
44565;DHT22;30275;51.822;-0.326;2023-01-29T04:33:48;5.10;99.90
44565;DHT22;30275;51.822;-0.326;2023-01-29T04:42:00;5.00;99.90
44565;DHT22;30275;51.822;-0.326;2023-01-29T04:45:23;5.00;99.90
44565;DHT22;30275;51.822;-0.326;2023-01-29T04:53:34;5.10;99.90
44565;DHT22;30275;51.822;-0.326;2023-01-29T04:56:18;5.10;99.90
44565;DHT22;30275;51.822;-0.326;2023-01-29T04:58:56;5.00;99.90
44565;DHT22;30275;51.822;-0.326;2023-01-29T05:01:26;5.00;99.90
44565;DHT22;30275;51.822;-0.326;2023-01-29T05:03:55;5.00;99.90
44565;DHT22;30275;51.822;-0.326;2023-01-29T05:06:22;4.90;99.90
44565;DHT22;30275;51.822;-0.326;2023-01-29T05:08:50;4.90;99.90
44565;DHT22;30275;51.822;-0.326;2023-01-29T05:11:17;4.90;99.90
44565;DHT22;30275;51.822;-0.326;2023-01-29T05:13:43;4.80;99.90
44565;DHT22;30275;51.822;-0.326;2023-01-29T05:19:11;4.80;99.90
44565;DHT22;30275;51.822;-0.326;2023-01-29T05:21:38;4.80;99.90
44565;DHT22;30275;51.822;-0.326;2023-01-29T05:24:13;4.90;99.90
44565;DHT22;30275;51.822;-0.326;2023-01-29T05:26:41;4.80;99.90
44565;DHT22;30275;51.822;-0.326;2023-01-29T05:29:25;4.80;99.90
44565;DHT22;30275;51.822;-0.326;2023-01-29T05:31:51;4.70;99.90
44565;DHT22;30275;51.822;-0.326;2023-01-29T05:34:17;4.70;99.90
44565;DHT22;30275;51.822;-0.326;2023-01-29T05:36:42;4.70;99.90
44565;DHT22;30275;51.822;-0.326;2023-01-29T05:39:08;4.70;99.90
44565;DHT22;30275;51.822;-0.326;2023-01-29T05:41:34;4.60;99.90
44565;DHT22;30275;51.822;-0.326;2023-01-29T05:43:59;4.70;99.90
44565;DHT22;30275;51.822;-0.326;2023-01-29T05:46:25;4.60;99.90
44565;DHT22;30275;51.822;-0.326;2023-01-29T05:48:53;4.60;99.90
44565;DHT22;30275;51.822;-0.326;2023-01-29T05:51:19;4.60;99.90
44565;DHT22;30275;51.822;-0.326;2023-01-29T05:53:45;4.60;99.90
44565;DHT22;30275;51.822;-0.326;2023-01-29T05:56:10;4.70;99.90
44565;DHT22;30275;51.822;-0.326;2023-01-29T05:58:36;4.60;99.90
44565;DHT22;30275;51.822;-0.326;2023-01-29T06:03:38;4.60;99.90
44565;DHT22;30275;51.822;-0.326;2023-01-29T06:06:03;4.50;99.90
44565;DHT22;30275;51.822;-0.326;2023-01-29T06:08:29;4.50;99.90
44565;DHT22;30275;51.822;-0.326;2023-01-29T06:10:55;4.40;99.90
44565;DHT22;30275;51.822;-0.326;2023-01-29T06:13:20;4.40;99.90
44565;DHT22;30275;51.822;-0.326;2023-01-29T06:15:46;4.30;99.90
44565;DHT22;30275;51.822;-0.326;2023-01-29T06:18:11;4.30;99.90
44565;DHT22;30275;51.822;-0.326;2023-01-29T06:20:38;4.30;99.90
44565;DHT22;30275;51.822;-0.326;2023-01-29T06:23:04;4.30;99.90
44565;DHT22;30275;51.822;-0.326;2023-01-29T06:25:30;4.30;99.90
44565;DHT22;30275;51.822;-0.326;2023-01-29T06:27:55;4.30;99.90
44565;DHT22;30275;51.822;-0.326;2023-01-29T06:30:21;4.30;99.90
44565;DHT22;30275;51.822;-0.326;2023-01-29T06:32:47;4.30;99.90
44565;DHT22;30275;51.822;-0.326;2023-01-29T06:35:13;4.30;99.90
44565;DHT22;30275;51.822;-0.326;2023-01-29T06:37:39;4.20;99.90
44565;DHT22;30275;51.822;-0.326;2023-01-29T06:40:05;4.30;99.90
44565;DHT22;30275;51.822;-0.326;2023-01-29T06:42:31;4.30;99.90
44565;DHT22;30275;51.822;-0.326;2023-01-29T06:44:56;4.30;99.90
44565;DHT22;30275;51.822;-0.326;2023-01-29T06:47:23;4.40;99.90
44565;DHT22;30275;51.822;-0.326;2023-01-29T06:49:49;4.40;99.90
44565;DHT22;30275;51.822;-0.326;2023-01-29T06:52:15;4.30;99.90
44565;DHT22;30275;51.822;-0.326;2023-01-29T06:54:40;4.30;99.90
44565;DHT22;30275;51.822;-0.326;2023-01-29T06:57:06;4.30;99.90
44565;DHT22;30275;51.822;-0.326;2023-01-29T06:59:31;4.30;99.90
44565;DHT22;30275;51.822;-0.326;2023-01-29T07:01:57;4.40;99.90
44565;DHT22;30275;51.822;-0.326;2023-01-29T07:04:23;4.40;99.90
44565;DHT22;30275;51.822;-0.326;2023-01-29T07:06:49;4.40;99.90
44565;DHT22;30275;51.822;-0.326;2023-01-29T07:09:15;4.50;99.90
44565;DHT22;30275;51.822;-0.326;2023-01-29T07:11:42;4.40;99.90
44565;DHT22;30275;51.822;-0.326;2023-01-29T07:14:08;4.30;99.90
44565;DHT22;30275;51.822;-0.326;2023-01-29T07:16:34;4.30;99.90
44565;DHT22;30275;51.822;-0.326;2023-01-29T07:19:00;4.30;99.90
44565;DHT22;30275;51.822;-0.326;2023-01-29T07:21:26;4.30;99.90
44565;DHT22;30275;51.822;-0.326;2023-01-29T07:23:52;4.30;99.90
44565;DHT22;30275;51.822;-0.326;2023-01-29T07:26:18;4.30;99.90
44565;DHT22;30275;51.822;-0.326;2023-01-29T07:28:43;4.40;99.90
44565;DHT22;30275;51.822;-0.326;2023-01-29T07:31:11;4.40;99.90
44565;DHT22;30275;51.822;-0.326;2023-01-29T07:33:38;4.30;99.90
44565;DHT22;30275;51.822;-0.326;2023-01-29T07:36:10;4.40;99.90
44565;DHT22;30275;51.822;-0.326;2023-01-29T07:38:36;4.30;99.90
44565;DHT22;30275;51.822;-0.326;2023-01-29T07:41:02;4.40;99.90
44565;DHT22;30275;51.822;-0.326;2023-01-29T07:43:28;4.40;99.90
44565;DHT22;30275;51.822;-0.326;2023-01-29T07:45:54;4.40;99.90
44565;DHT22;30275;51.822;-0.326;2023-01-29T07:48:20;4.40;99.90
44565;DHT22;30275;51.822;-0.326;2023-01-29T07:50:53;4.30;99.90
44565;DHT22;30275;51.822;-0.326;2023-01-29T07:53:19;4.30;99.90
44565;DHT22;30275;51.822;-0.326;2023-01-29T07:55:44;4.30;99.90
44565;DHT22;30275;51.822;-0.326;2023-01-29T07:58:10;4.30;99.90
44565;DHT22;30275;51.822;-0.326;2023-01-29T08:00:36;4.30;99.90
44565;DHT22;30275;51.822;-0.326;2023-01-29T08:03:08;4.30;99.90
44565;DHT22;30275;51.822;-0.326;2023-01-29T08:05:35;4.30;99.90
44565;DHT22;30275;51.822;-0.326;2023-01-29T08:08:00;4.30;99.90
44565;DHT22;30275;51.822;-0.326;2023-01-29T08:10:26;4.30;99.90
44565;DHT22;30275;51.822;-0.326;2023-01-29T08:12:59;4.30;99.90
44565;DHT22;30275;51.822;-0.326;2023-01-29T08:15:25;4.40;99.90
44565;DHT22;30275;51.822;-0.326;2023-01-29T08:17:51;4.40;99.90
44565;DHT22;30275;51.822;-0.326;2023-01-29T08:20:18;4.40;99.90
44565;DHT22;30275;51.822;-0.326;2023-01-29T08:22:44;4.50;99.90
44565;DHT22;30275;51.822;-0.326;2023-01-29T08:25:10;4.50;99.90
44565;DHT22;30275;51.822;-0.326;2023-01-29T08:27:36;4.50;99.90
44565;DHT22;30275;51.822;-0.326;2023-01-29T08:30:03;4.40;99.90
44565;DHT22;30275;51.822;-0.326;2023-01-29T08:32:29;4.50;99.90
44565;DHT22;30275;51.822;-0.326;2023-01-29T08:34:54;4.50;99.90
44565;DHT22;30275;51.822;-0.326;2023-01-29T08:37:20;4.40;99.90
44565;DHT22;30275;51.822;-0.326;2023-01-29T08:39:45;4.40;99.90
44565;DHT22;30275;51.822;-0.326;2023-01-29T08:42:11;4.40;99.90
44565;DHT22;30275;51.822;-0.326;2023-01-29T08:44:37;4.40;99.90
44565;DHT22;30275;51.822;-0.326;2023-01-29T08:47:03;4.40;99.90
44565;DHT22;30275;51.822;-0.326;2023-01-29T08:49:28;4.40;99.90
44565;DHT22;30275;51.822;-0.326;2023-01-29T08:51:54;4.40;99.90
44565;DHT22;30275;51.822;-0.326;2023-01-29T08:54:21;4.50;99.90
44565;DHT22;30275;51.822;-0.326;2023-01-29T08:56:47;4.50;99.90
44565;DHT22;30275;51.822;-0.326;2023-01-29T08:59:13;4.60;99.90
44565;DHT22;30275;51.822;-0.326;2023-01-29T09:01:38;4.60;99.90
44565;DHT22;30275;51.822;-0.326;2023-01-29T09:04:04;4.70;99.90
44565;DHT22;30275;51.822;-0.326;2023-01-29T09:06:30;4.70;99.90
44565;DHT22;30275;51.822;-0.326;2023-01-29T09:08:55;4.70;99.90
44565;DHT22;30275;51.822;-0.326;2023-01-29T09:11:21;4.80;99.90
44565;DHT22;30275;51.822;-0.326;2023-01-29T09:13:47;4.80;99.90
44565;DHT22;30275;51.822;-0.326;2023-01-29T09:16:12;4.90;99.90
44565;DHT22;30275;51.822;-0.326;2023-01-29T09:18:38;4.90;99.90
44565;DHT22;30275;51.822;-0.326;2023-01-29T09:21:04;5.00;99.90
44565;DHT22;30275;51.822;-0.326;2023-01-29T09:23:30;5.00;99.90
44565;DHT22;30275;51.822;-0.326;2023-01-29T09:25:56;5.10;99.90
44565;DHT22;30275;51.822;-0.326;2023-01-29T09:28:22;5.20;99.90
44565;DHT22;30275;51.822;-0.326;2023-01-29T09:30:47;5.30;99.90
44565;DHT22;30275;51.822;-0.326;2023-01-29T09:33:13;5.30;99.90
44565;DHT22;30275;51.822;-0.326;2023-01-29T09:35:43;5.40;99.90
44565;DHT22;30275;51.822;-0.326;2023-01-29T09:38:12;5.50;99.90
44565;DHT22;30275;51.822;-0.326;2023-01-29T09:40:55;5.50;99.90
44565;DHT22;30275;51.822;-0.326;2023-01-29T09:43:31;5.50;99.90
44565;DHT22;30275;51.822;-0.326;2023-01-29T09:46:23;5.50;99.90
44565;DHT22;30275;51.822;-0.326;2023-01-29T09:49:00;5.60;99.90
44565;DHT22;30275;51.822;-0.326;2023-01-29T09:51:31;5.60;99.90
44565;DHT22;30275;51.822;-0.326;2023-01-29T09:54:18;5.60;99.90
44565;DHT22;30275;51.822;-0.326;2023-01-29T09:56:54;5.60;99.90
44565;DHT22;30275;51.822;-0.326;2023-01-29T09:59:22;5.70;99.90
44565;DHT22;30275;51.822;-0.326;2023-01-29T10:05:08;5.80;99.90
44565;DHT22;30275;51.822;-0.326;2023-01-29T10:07:45;5.70;99.90
44565;DHT22;30275;51.822;-0.326;2023-01-29T10:12:53;5.70;99.90
44565;DHT22;30275;51.822;-0.326;2023-01-29T10:15:34;5.80;99.90
44565;DHT22;30275;51.822;-0.326;2023-01-29T10:26:27;6.10;99.90
44565;DHT22;30275;51.822;-0.326;2023-01-29T10:28:55;6.20;99.90
44565;DHT22;30275;51.822;-0.326;2023-01-29T10:31:27;6.20;99.90
44565;DHT22;30275;51.822;-0.326;2023-01-29T10:34:00;6.00;99.90
44565;DHT22;30275;51.822;-0.326;2023-01-29T10:36:33;6.00;99.90
44565;DHT22;30275;51.822;-0.326;2023-01-29T10:39:01;6.00;99.90
44565;DHT22;30275;51.822;-0.326;2023-01-29T11:01:03;6.00;99.90
44565;DHT22;30275;51.822;-0.326;2023-01-29T11:03:30;6.00;99.90
44565;DHT22;30275;51.822;-0.326;2023-01-29T11:06:14;6.10;99.90
44565;DHT22;30275;51.822;-0.326;2023-01-29T11:08:55;6.30;99.90
44565;DHT22;30275;51.822;-0.326;2023-01-29T11:11:27;6.30;99.90
44565;DHT22;30275;51.822;-0.326;2023-01-29T11:13:59;6.30;99.90
44565;DHT22;30275;51.822;-0.326;2023-01-29T11:16:29;6.30;99.90
44565;DHT22;30275;51.822;-0.326;2023-01-29T11:18:59;6.20;99.90
44565;DHT22;30275;51.822;-0.326;2023-01-29T11:21:27;6.10;99.90
44565;DHT22;30275;51.822;-0.326;2023-01-29T11:24:13;6.10;99.90
44565;DHT22;30275;51.822;-0.326;2023-01-29T11:26:42;6.10;99.90
44565;DHT22;30275;51.822;-0.326;2023-01-29T11:32:28;6.10;99.90
44565;DHT22;30275;51.822;-0.326;2023-01-29T11:37:37;6.30;99.90
44565;DHT22;30275;51.822;-0.326;2023-01-29T11:42:47;6.40;99.90
44565;DHT22;30275;51.822;-0.326;2023-01-29T11:45:26;6.40;99.90
44565;DHT22;30275;51.822;-0.326;2023-01-29T11:47:53;6.50;99.90
44565;DHT22;30275;51.822;-0.326;2023-01-29T11:50:23;6.40;99.90
44565;DHT22;30275;51.822;-0.326;2023-01-29T11:52:50;6.50;99.90
44565;DHT22;30275;51.822;-0.326;2023-01-29T11:55:30;6.70;99.90
44565;DHT22;30275;51.822;-0.326;2023-01-29T11:58:11;6.90;99.90
44565;DHT22;30275;51.822;-0.326;2023-01-29T12:00:39;7.00;99.90
44565;DHT22;30275;51.822;-0.326;2023-01-29T12:03:35;7.20;99.90
44565;DHT22;30275;51.822;-0.326;2023-01-29T12:06:20;7.20;99.90
44565;DHT22;30275;51.822;-0.326;2023-01-29T12:08:54;7.10;99.90
44565;DHT22;30275;51.822;-0.326;2023-01-29T12:11:34;7.20;99.90
44565;DHT22;30275;51.822;-0.326;2023-01-29T12:14:05;7.30;99.90
44565;DHT22;30275;51.822;-0.326;2023-01-29T12:16:55;7.30;99.90
44565;DHT22;30275;51.822;-0.326;2023-01-29T12:19:33;7.40;99.90
44565;DHT22;30275;51.822;-0.326;2023-01-29T12:22:07;7.40;99.90
44565;DHT22;30275;51.822;-0.326;2023-01-29T12:29:55;7.40;99.90
44565;DHT22;30275;51.822;-0.326;2023-01-29T12:32:42;7.50;99.90
44565;DHT22;30275;51.822;-0.326;2023-01-29T12:38:17;7.80;99.90
44565;DHT22;30275;51.822;-0.326;2023-01-29T12:45:56;8.10;99.90
44565;DHT22;30275;51.822;-0.326;2023-01-29T12:48:38;7.90;99.90
44565;DHT22;30275;51.822;-0.326;2023-01-29T12:51:09;7.70;99.90
44565;DHT22;30275;51.822;-0.326;2023-01-29T12:53:56;7.70;99.90
44565;DHT22;30275;51.822;-0.326;2023-01-29T12:56:26;7.70;99.90
44565;DHT22;30275;51.822;-0.326;2023-01-29T12:58:54;7.80;99.90
44565;DHT22;30275;51.822;-0.326;2023-01-29T13:01:33;7.90;99.90
44565;DHT22;30275;51.822;-0.326;2023-01-29T13:04:05;8.10;99.90
44565;DHT22;30275;51.822;-0.326;2023-01-29T13:06:49;8.40;99.90
44565;DHT22;30275;51.822;-0.326;2023-01-29T13:09:23;8.50;99.90
44565;DHT22;30275;51.822;-0.326;2023-01-29T13:11:55;8.40;99.90
44565;DHT22;30275;51.822;-0.326;2023-01-29T13:14:43;8.40;99.90
44565;DHT22;30275;51.822;-0.326;2023-01-29T13:17:25;8.30;99.90
44565;DHT22;30275;51.822;-0.326;2023-01-29T13:19:56;8.20;99.90
44565;DHT22;30275;51.822;-0.326;2023-01-29T13:22:25;8.20;99.90
44565;DHT22;30275;51.822;-0.326;2023-01-29T13:24:52;8.40;99.90
44565;DHT22;30275;51.822;-0.326;2023-01-29T13:27:25;8.30;99.90
44565;DHT22;30275;51.822;-0.326;2023-01-29T13:29:52;8.20;99.90
44565;DHT22;30275;51.822;-0.326;2023-01-29T13:32:29;8.20;99.90
44565;DHT22;30275;51.822;-0.326;2023-01-29T13:35:02;8.30;99.90
44565;DHT22;30275;51.822;-0.326;2023-01-29T13:37:45;8.40;99.90
44565;DHT22;30275;51.822;-0.326;2023-01-29T13:40:28;8.40;99.90
44565;DHT22;30275;51.822;-0.326;2023-01-29T13:42:55;8.40;99.90
44565;DHT22;30275;51.822;-0.326;2023-01-29T13:45:24;8.30;99.90
44565;DHT22;30275;51.822;-0.326;2023-01-29T13:47:52;8.30;99.90
44565;DHT22;30275;51.822;-0.326;2023-01-29T13:50:36;8.30;99.90
44565;DHT22;30275;51.822;-0.326;2023-01-29T13:53:04;8.30;99.90
44565;DHT22;30275;51.822;-0.326;2023-01-29T13:55:36;8.30;99.90
44565;DHT22;30275;51.822;-0.326;2023-01-29T14:01:00;8.40;99.90
44565;DHT22;30275;51.822;-0.326;2023-01-29T14:05:57;8.50;99.90
44565;DHT22;30275;51.822;-0.326;2023-01-29T14:08:42;8.60;99.90
44565;DHT22;30275;51.822;-0.326;2023-01-29T14:13:49;8.70;99.90
44565;DHT22;30275;51.822;-0.326;2023-01-29T14:18:54;8.60;99.90
44565;DHT22;30275;51.822;-0.326;2023-01-29T14:21:22;8.60;99.90
44565;DHT22;30275;51.822;-0.326;2023-01-29T14:23:53;8.50;99.90
44565;DHT22;30275;51.822;-0.326;2023-01-29T14:26:39;8.50;99.90
44565;DHT22;30275;51.822;-0.326;2023-01-29T14:31:48;8.60;99.90
44565;DHT22;30275;51.822;-0.326;2023-01-29T14:34:30;8.60;99.90
44565;DHT22;30275;51.822;-0.326;2023-01-29T14:39:47;8.80;99.90
44565;DHT22;30275;51.822;-0.326;2023-01-29T14:42:32;8.80;99.90
44565;DHT22;30275;51.822;-0.326;2023-01-29T14:45:24;8.90;99.90
44565;DHT22;30275;51.822;-0.326;2023-01-29T14:47:51;9.00;99.90
44565;DHT22;30275;51.822;-0.326;2023-01-29T14:53:19;8.90;99.90
44565;DHT22;30275;51.822;-0.326;2023-01-29T14:58:46;9.00;99.90
44565;DHT22;30275;51.822;-0.326;2023-01-29T15:03:53;9.00;99.90
44565;DHT22;30275;51.822;-0.326;2023-01-29T15:06:46;9.00;99.90
44565;DHT22;30275;51.822;-0.326;2023-01-29T15:11:57;9.00;99.90
44565;DHT22;30275;51.822;-0.326;2023-01-29T15:17:24;9.00;99.90
44565;DHT22;30275;51.822;-0.326;2023-01-29T15:19:51;8.90;99.90
44565;DHT22;30275;51.822;-0.326;2023-01-29T15:22:21;8.80;99.90
44565;DHT22;30275;51.822;-0.326;2023-01-29T15:25:11;8.90;99.90
44565;DHT22;30275;51.822;-0.326;2023-01-29T15:27:41;8.90;99.90
44565;DHT22;30275;51.822;-0.326;2023-01-29T15:30:14;8.90;99.90
44565;DHT22;30275;51.822;-0.326;2023-01-29T15:32:41;8.90;99.90
44565;DHT22;30275;51.822;-0.326;2023-01-29T15:37:39;8.90;99.90
44565;DHT22;30275;51.822;-0.326;2023-01-29T15:40:13;8.90;99.90
44565;DHT22;30275;51.822;-0.326;2023-01-29T15:42:45;8.80;99.90
44565;DHT22;30275;51.822;-0.326;2023-01-29T15:45:32;8.70;99.90
44565;DHT22;30275;51.822;-0.326;2023-01-29T15:48:04;8.80;99.90
44565;DHT22;30275;51.822;-0.326;2023-01-29T15:50:33;8.70;99.90
44565;DHT22;30275;51.822;-0.326;2023-01-29T15:53:02;8.80;99.90
44565;DHT22;30275;51.822;-0.326;2023-01-29T15:55:31;8.80;99.90
44565;DHT22;30275;51.822;-0.326;2023-01-29T15:57:58;8.70;99.90
44565;DHT22;30275;51.822;-0.326;2023-01-29T16:00:26;8.70;99.90
44565;DHT22;30275;51.822;-0.326;2023-01-29T16:02:55;8.70;99.90
44565;DHT22;30275;51.822;-0.326;2023-01-29T16:05:24;8.60;99.90
44565;DHT22;30275;51.822;-0.326;2023-01-29T16:07:51;8.60;99.90
44565;DHT22;30275;51.822;-0.326;2023-01-29T16:10:27;8.60;99.90
44565;DHT22;30275;51.822;-0.326;2023-01-29T16:12:54;8.50;99.90
44565;DHT22;30275;51.822;-0.326;2023-01-29T16:17:52;8.40;99.90
44565;DHT22;30275;51.822;-0.326;2023-01-29T16:20:29;8.30;99.90
44565;DHT22;30275;51.822;-0.326;2023-01-29T16:22:56;8.20;99.90
44565;DHT22;30275;51.822;-0.326;2023-01-29T16:25:22;8.10;99.90
44565;DHT22;30275;51.822;-0.326;2023-01-29T16:27:48;8.10;99.90
44565;DHT22;30275;51.822;-0.326;2023-01-29T16:30:15;8.10;99.90
44565;DHT22;30275;51.822;-0.326;2023-01-29T16:32:42;8.00;99.90
44565;DHT22;30275;51.822;-0.326;2023-01-29T16:35:17;8.00;99.90
44565;DHT22;30275;51.822;-0.326;2023-01-29T16:37:47;7.90;99.90
44565;DHT22;30275;51.822;-0.326;2023-01-29T16:40:29;7.90;99.90
44565;DHT22;30275;51.822;-0.326;2023-01-29T16:46:04;7.90;99.90
44565;DHT22;30275;51.822;-0.326;2023-01-29T16:48:32;8.00;99.90
44565;DHT22;30275;51.822;-0.326;2023-01-29T16:51:12;8.00;99.90
44565;DHT22;30275;51.822;-0.326;2023-01-29T16:53:38;8.00;99.90
44565;DHT22;30275;51.822;-0.326;2023-01-29T16:56:07;8.00;99.90
44565;DHT22;30275;51.822;-0.326;2023-01-29T16:58:34;7.90;99.90
44565;DHT22;30275;51.822;-0.326;2023-01-29T17:01:06;7.80;99.90
44565;DHT22;30275;51.822;-0.326;2023-01-29T17:03:34;7.80;99.90
44565;DHT22;30275;51.822;-0.326;2023-01-29T17:06:23;7.80;99.90
44565;DHT22;30275;51.822;-0.326;2023-01-29T17:08:50;7.80;99.90
44565;DHT22;30275;51.822;-0.326;2023-01-29T17:14:00;7.80;99.90
44565;DHT22;30275;51.822;-0.326;2023-01-29T17:16:28;7.70;99.90
44565;DHT22;30275;51.822;-0.326;2023-01-29T17:18:54;7.70;99.90
44565;DHT22;30275;51.822;-0.326;2023-01-29T17:21:20;7.70;99.90
44565;DHT22;30275;51.822;-0.326;2023-01-29T17:23:46;7.70;99.90
44565;DHT22;30275;51.822;-0.326;2023-01-29T17:26:12;7.70;99.90
44565;DHT22;30275;51.822;-0.326;2023-01-29T17:28:39;7.70;99.90
44565;DHT22;30275;51.822;-0.326;2023-01-29T17:31:05;7.70;99.90
44565;DHT22;30275;51.822;-0.326;2023-01-29T17:33:32;7.70;99.90
44565;DHT22;30275;51.822;-0.326;2023-01-29T17:35:58;7.70;99.90
44565;DHT22;30275;51.822;-0.326;2023-01-29T17:38:24;7.70;99.90
44565;DHT22;30275;51.822;-0.326;2023-01-29T17:43:20;7.60;99.90
44565;DHT22;30275;51.822;-0.326;2023-01-29T17:45:46;7.60;99.90
44565;DHT22;30275;51.822;-0.326;2023-01-29T17:48:23;7.60;99.90
44565;DHT22;30275;51.822;-0.326;2023-01-29T17:50:54;7.60;99.90
44565;DHT22;30275;51.822;-0.326;2023-01-29T17:53:21;7.50;99.90
44565;DHT22;30275;51.822;-0.326;2023-01-29T17:55:47;7.50;99.90
44565;DHT22;30275;51.822;-0.326;2023-01-29T17:58:24;7.50;99.90
44565;DHT22;30275;51.822;-0.326;2023-01-29T18:00:50;7.50;99.90
44565;DHT22;30275;51.822;-0.326;2023-01-29T18:03:16;7.60;99.90
44565;DHT22;30275;51.822;-0.326;2023-01-29T18:05:45;7.50;99.90
44565;DHT22;30275;51.822;-0.326;2023-01-29T18:10:41;7.60;99.90
44565;DHT22;30275;51.822;-0.326;2023-01-29T18:13:07;7.60;99.90
44565;DHT22;30275;51.822;-0.326;2023-01-29T18:15:32;7.60;99.90
44565;DHT22;30275;51.822;-0.326;2023-01-29T18:17:58;7.50;99.90
44565;DHT22;30275;51.822;-0.326;2023-01-29T18:20:24;7.40;99.90
44565;DHT22;30275;51.822;-0.326;2023-01-29T18:22:52;7.40;99.90
44565;DHT22;30275;51.822;-0.326;2023-01-29T18:25:18;7.30;99.90
44565;DHT22;30275;51.822;-0.326;2023-01-29T18:27:44;7.20;99.90
44565;DHT22;30275;51.822;-0.326;2023-01-29T18:30:10;7.20;99.90